createdAt,value
2022-08-25T00:00:41.981Z,26.06
2022-08-25T00:04:45.309Z,26.08
2022-08-25T00:08:59.456Z,26.06
2022-08-25T00:13:02.096Z,26.04
2022-08-25T00:17:05.309Z,26.01
2022-08-25T00:21:07.691Z,26.00
2022-08-25T00:25:09.781Z,25.98
2022-08-25T00:29:11.564Z,25.93
2022-08-25T00:33:13.860Z,25.90
2022-08-25T00:37:16.211Z,25.85
2022-08-25T00:41:22.669Z,25.81
2022-08-25T00:45:24.956Z,25.78
2022-08-25T00:49:32.464Z,25.75
2022-08-25T00:53:34.377Z,25.72
2022-08-25T00:57:44.689Z,25.66
2022-08-25T01:01:47.103Z,25.66
2022-08-25T01:05:49.121Z,25.60
2022-08-25T01:09:53.329Z,25.54
2022-08-25T01:13:57.045Z,25.53
2022-08-25T01:17:59.749Z,25.51
2022-08-25T01:22:01.788Z,25.49
2022-08-25T01:26:31.211Z,25.35
2022-08-25T01:30:33.065Z,24.97
2022-08-25T01:34:37.864Z,24.63
2022-08-25T01:38:39.636Z,24.59
2022-08-25T01:42:54.196Z,24.52
2022-08-25T01:46:55.790Z,24.49
2022-08-25T01:50:57.363Z,24.33
2022-08-25T01:54:59.042Z,24.12
2022-08-25T01:59:00.952Z,24.08
2022-08-25T02:03:02.503Z,23.93
2022-08-25T02:07:09.000Z,23.90
2022-08-25T02:11:12.488Z,23.96
2022-08-25T02:15:14.558Z,24.02
2022-08-25T02:19:16.908Z,23.99
2022-08-25T02:23:18.547Z,23.89
2022-08-25T02:27:20.102Z,23.68
2022-08-25T02:31:24.288Z,23.50
2022-08-25T02:35:26.040Z,23.52
2022-08-25T02:39:27.682Z,23.53
2022-08-25T02:43:29.602Z,23.56
2022-08-25T02:47:32.007Z,23.59
2022-08-25T02:51:34.614Z,23.53
2022-08-25T02:55:36.232Z,23.52
2022-08-25T02:59:38.197Z,23.49
2022-08-25T03:03:41.428Z,23.39
2022-08-25T03:07:45.108Z,23.19
2022-08-25T03:11:47.328Z,23.00
2022-08-25T03:15:49.347Z,22.96
2022-08-25T03:19:51.034Z,22.88
2022-08-25T03:23:52.703Z,22.72
2022-08-25T03:27:54.285Z,22.75
2022-08-25T03:31:58.186Z,22.82
2022-08-25T03:36:00.073Z,22.88
2022-08-25T03:40:04.336Z,22.75
2022-08-25T03:44:08.023Z,22.79
2022-08-25T03:48:09.691Z,22.79
2022-08-25T03:52:11.279Z,22.70
2022-08-25T03:56:13.230Z,22.59
2022-08-25T04:00:15.228Z,22.46
2022-08-25T04:04:16.831Z,22.30
2022-08-25T04:08:19.358Z,22.23
2022-08-25T04:12:21.213Z,22.14
2022-08-25T04:16:28.245Z,22.27
2022-08-25T04:20:30.153Z,22.38
2022-08-25T04:24:32.397Z,22.44
2022-08-25T04:28:34.016Z,22.45
2022-08-25T04:32:36.768Z,22.44
2022-08-25T04:36:38.449Z,22.41
2022-08-25T04:40:40.045Z,22.39
2022-08-25T04:44:41.779Z,22.17
2022-08-25T04:48:43.490Z,22.26
2022-08-25T04:52:45.101Z,22.30
2022-08-25T04:56:46.955Z,22.35
2022-08-25T05:00:48.522Z,22.33
2022-08-25T05:04:50.399Z,22.36
2022-08-25T05:08:52.471Z,22.35
2022-08-25T05:12:54.101Z,22.35
2022-08-25T05:16:58.057Z,22.30
2022-08-25T05:21:08.245Z,22.23
2022-08-25T05:25:10.020Z,22.14
2022-08-25T05:29:11.655Z,22.15
2022-08-25T05:33:13.537Z,22.20
2022-08-25T05:37:15.169Z,22.24
2022-08-25T05:41:24.849Z,22.29
2022-08-25T05:45:26.518Z,22.20
2022-08-25T05:49:28.260Z,22.17
2022-08-25T05:53:31.417Z,22.17
2022-08-25T05:57:36.084Z,22.21
2022-08-25T06:02:03.997Z,22.31
2022-08-25T06:06:07.251Z,22.39
2022-08-25T06:10:13.358Z,22.39
2022-08-25T06:14:16.034Z,22.36
2022-08-25T06:18:17.645Z,22.39
2022-08-25T06:22:19.287Z,22.48
2022-08-25T06:26:21.557Z,22.51
2022-08-25T06:30:28.954Z,22.60
2022-08-25T06:34:31.504Z,22.69
2022-08-25T06:38:33.306Z,22.78
2022-08-25T06:42:34.984Z,22.84
2022-08-25T06:46:37.234Z,22.91
2022-08-25T06:50:39.866Z,23.04
2022-08-25T06:54:41.586Z,23.16
2022-08-25T06:58:43.933Z,23.25
2022-08-25T07:02:45.537Z,23.34
2022-08-25T07:06:49.029Z,23.41
2022-08-25T07:10:50.848Z,23.49
2022-08-25T07:15:09.981Z,23.54
2022-08-25T07:19:14.714Z,23.62
2022-08-25T07:23:16.415Z,23.72
2022-08-25T07:27:17.988Z,23.86
2022-08-25T07:31:19.789Z,24.02
2022-08-25T07:35:24.164Z,24.15
2022-08-25T07:39:29.094Z,24.26
2022-08-25T07:43:30.828Z,24.41
2022-08-25T07:47:33.219Z,24.52
2022-08-25T07:51:34.928Z,24.67
2022-08-25T07:55:36.608Z,24.84
2022-08-25T07:59:42.374Z,24.94
2022-08-25T08:03:50.500Z,25.07
2022-08-25T08:07:54.705Z,25.20
2022-08-25T08:11:56.292Z,25.34
2022-08-25T08:15:57.928Z,25.48
2022-08-25T08:19:59.740Z,25.63
2022-08-25T08:24:05.029Z,25.79
2022-08-25T08:28:12.529Z,25.96
2022-08-25T08:32:14.962Z,26.11
2022-08-25T08:36:17.393Z,26.28
2022-08-25T08:40:20.527Z,26.41
2022-08-25T08:44:42.572Z,26.50
2022-08-25T08:49:05.537Z,26.65
2022-08-25T08:53:23.487Z,26.78
2022-08-25T08:57:27.052Z,26.91
2022-08-25T09:01:34.680Z,27.03
2022-08-25T09:05:47.244Z,27.15
2022-08-25T09:09:54.141Z,27.23
2022-08-25T09:14:13.702Z,27.34
2022-08-25T09:18:26.840Z,27.49
2022-08-25T09:22:53.748Z,27.61
2022-08-25T09:27:11.260Z,27.71
2022-08-25T09:31:21.003Z,27.83
2022-08-25T09:35:27.753Z,27.91
2022-08-25T09:39:29.323Z,28.03
2022-08-25T09:43:33.371Z,27.95
2022-08-25T09:47:43.097Z,27.95
2022-08-25T09:51:44.844Z,28.17
2022-08-25T09:55:59.871Z,28.28
2022-08-25T10:00:14.444Z,28.33
2022-08-25T10:04:37.035Z,28.42
2022-08-25T10:08:51.591Z,28.51
2022-08-25T10:12:53.238Z,28.57
2022-08-25T10:17:14.111Z,28.69
2022-08-25T10:21:17.451Z,28.82
2022-08-25T10:25:28.235Z,28.92
2022-08-25T10:29:55.534Z,29.03
2022-08-25T10:34:08.196Z,29.02
2022-08-25T10:38:36.202Z,29.12
2022-08-25T10:42:59.348Z,29.30
2022-08-25T10:47:22.598Z,29.44
2022-08-25T10:52:01.181Z,29.51
2022-08-25T10:56:40.281Z,29.64
2022-08-25T11:00:57.519Z,29.82
2022-08-25T11:05:38.077Z,29.88
2022-08-25T11:09:43.666Z,30.03
2022-08-25T11:13:54.142Z,30.11
2022-08-25T11:18:02.065Z,30.25
2022-08-25T11:22:21.359Z,30.42
2022-08-25T11:26:36.601Z,30.54
2022-08-25T11:30:40.162Z,30.34
2022-08-25T11:34:43.779Z,30.36
2022-08-25T11:39:00.999Z,30.22
2022-08-25T11:43:35.822Z,30.46
2022-08-25T11:48:06.800Z,30.48
2022-08-25T11:52:34.691Z,30.25
2022-08-25T11:56:40.153Z,30.15
2022-08-25T12:00:43.828Z,30.28
2022-08-25T12:04:46.730Z,30.36
2022-08-25T12:09:18.596Z,30.68
2022-08-25T12:13:51.195Z,30.67
2022-08-25T12:18:40.150Z,30.98
2022-08-25T12:22:55.373Z,31.03
2022-08-25T12:27:00.393Z,31.46
2022-08-25T12:31:15.914Z,31.82
2022-08-25T12:35:29.437Z,32.10
2022-08-25T12:39:42.677Z,32.28
2022-08-25T12:43:46.592Z,32.25
2022-08-25T12:47:49.992Z,32.39
2022-08-25T12:51:54.010Z,32.34
2022-08-25T12:56:04.987Z,32.32
2022-08-25T13:00:16.760Z,32.17
2022-08-25T13:04:41.539Z,32.44
2022-08-25T13:09:39.760Z,32.68
2022-08-25T13:14:05.902Z,32.95
2022-08-25T13:18:21.007Z,33.05
2022-08-25T13:22:23.425Z,33.28
2022-08-25T13:26:31.869Z,33.47
2022-08-25T13:30:36.716Z,33.57
2022-08-25T13:34:42.554Z,33.71
2022-08-25T13:38:47.123Z,33.82
2022-08-25T13:42:55.905Z,34.01
2022-08-25T13:47:31.344Z,34.06
2022-08-25T13:51:33.427Z,34.15
2022-08-25T13:55:50.713Z,34.28
2022-08-25T14:00:03.838Z,34.43
2022-08-25T14:04:24.742Z,34.60
2022-08-25T14:08:36.506Z,34.75
2022-08-25T14:12:46.148Z,34.48
2022-08-25T14:16:49.513Z,34.11
2022-08-25T14:20:54.522Z,33.75
2022-08-25T14:24:56.191Z,33.70
2022-08-25T14:28:57.913Z,33.29
2022-08-25T14:33:01.389Z,32.96
2022-08-25T14:37:16.253Z,32.73
2022-08-25T14:41:17.939Z,32.63
2022-08-25T14:45:19.656Z,32.58
2022-08-25T14:49:26.919Z,32.50
2022-08-25T14:53:28.678Z,32.44
2022-08-25T14:57:30.433Z,32.41
2022-08-25T15:01:32.728Z,32.29
2022-08-25T15:05:34.941Z,32.84
2022-08-25T15:09:36.514Z,33.38
2022-08-25T15:13:38.077Z,33.78
2022-08-25T15:17:45.052Z,34.09
2022-08-25T15:21:48.098Z,34.31
2022-08-25T15:25:52.909Z,34.46
2022-08-25T15:29:54.756Z,34.65
2022-08-25T15:33:56.416Z,34.86
2022-08-25T15:37:57.974Z,34.93
2022-08-25T15:41:59.637Z,35.06
2022-08-25T15:46:01.571Z,35.25
2022-08-25T15:50:08.901Z,35.32
2022-08-25T15:54:11.733Z,35.42
2022-08-25T15:58:16.043Z,35.32
2022-08-25T16:02:18.453Z,35.34
2022-08-25T16:06:20.383Z,35.34
2022-08-25T16:10:22.103Z,35.15
2022-08-25T16:14:23.757Z,35.07
2022-08-25T16:18:25.806Z,35.03
2022-08-25T16:22:27.440Z,35.06
2022-08-25T16:26:31.251Z,35.05
2022-08-25T16:30:32.922Z,35.00
2022-08-25T16:34:36.689Z,34.94
2022-08-25T16:38:39.981Z,34.86
2022-08-25T16:42:41.809Z,34.69
2022-08-25T16:46:44.427Z,34.49
2022-08-25T16:50:46.062Z,34.33
2022-08-25T16:55:08.507Z,34.18
2022-08-25T16:59:12.811Z,34.08
2022-08-25T17:03:14.442Z,33.97
2022-08-25T17:07:23.916Z,33.81
2022-08-25T17:11:29.328Z,33.59
2022-08-25T17:15:31.499Z,33.45
2022-08-25T17:19:33.183Z,33.34
2022-08-25T17:23:36.462Z,33.22
2022-08-25T17:27:38.242Z,33.05
2022-08-25T17:31:44.190Z,32.85
2022-08-25T17:35:48.953Z,32.71
2022-08-25T17:39:50.854Z,32.51
2022-08-25T17:44:05.078Z,32.36
2022-08-25T17:48:09.065Z,32.19
2022-08-25T17:52:11.599Z,32.03
2022-08-25T17:56:16.070Z,31.85
2022-08-25T18:00:21.819Z,31.68
2022-08-25T18:04:23.547Z,31.52
2022-08-25T18:08:34.919Z,31.34
2022-08-25T18:12:37.931Z,31.19
2022-08-25T18:16:40.793Z,31.04
2022-08-25T18:20:47.114Z,30.91
2022-08-25T18:24:48.685Z,30.78
2022-08-25T18:28:50.291Z,30.67
2022-08-25T18:32:52.018Z,30.56
2022-08-25T18:36:53.562Z,30.44
2022-08-25T18:41:04.823Z,30.30
2022-08-25T18:45:08.092Z,30.21
2022-08-25T18:49:15.727Z,30.08
2022-08-25T18:53:18.429Z,29.99
2022-08-25T18:57:31.852Z,29.88
2022-08-25T19:01:36.937Z,29.81
2022-08-25T19:05:45.113Z,29.70
2022-08-25T19:09:51.114Z,29.55
2022-08-25T19:13:52.826Z,29.45
2022-08-25T19:17:55.335Z,29.39
2022-08-25T19:21:58.090Z,29.35
2022-08-25T19:26:00.951Z,29.27
2022-08-25T19:30:08.901Z,29.21
2022-08-25T19:34:15.214Z,29.14
2022-08-25T19:38:33.825Z,29.05
2022-08-25T19:42:38.405Z,29.00
2022-08-25T19:46:42.902Z,28.95
2022-08-25T19:50:45.231Z,28.83
2022-08-25T19:54:46.898Z,28.65
2022-08-25T19:58:48.639Z,28.50
2022-08-25T20:02:51.147Z,28.39
2022-08-25T20:06:55.348Z,28.38
2022-08-25T20:10:57.752Z,28.33
2022-08-25T20:14:59.510Z,28.30
2022-08-25T20:19:01.246Z,28.23
2022-08-25T20:23:22.898Z,28.21
2022-08-25T20:27:28.759Z,28.14
2022-08-25T20:31:31.276Z,28.08
2022-08-25T20:35:32.855Z,27.99
2022-08-25T20:39:34.574Z,27.95
2022-08-25T20:43:36.177Z,27.95
2022-08-25T20:47:37.911Z,27.90
2022-08-25T20:51:40.307Z,27.87
2022-08-25T20:55:43.719Z,27.81
2022-08-25T20:59:45.488Z,27.77
2022-08-25T21:03:47.255Z,27.72
2022-08-25T21:07:49.486Z,27.68
2022-08-25T21:11:53.802Z,27.58
2022-08-25T21:15:55.480Z,27.49
2022-08-25T21:19:57.049Z,27.48
2022-08-25T21:23:59.268Z,27.46
2022-08-25T21:28:01.131Z,27.42
2022-08-25T21:32:06.131Z,27.39
2022-08-25T21:36:10.263Z,27.35
2022-08-25T21:40:14.508Z,27.31
2022-08-25T21:44:17.988Z,27.28
2022-08-25T21:48:22.677Z,27.24
2022-08-25T21:52:30.139Z,27.16
2022-08-25T21:56:41.596Z,27.09
2022-08-25T22:00:44.975Z,27.03
2022-08-25T22:04:51.315Z,26.98
2022-08-25T22:08:56.249Z,26.94
2022-08-25T22:12:58.478Z,26.91
2022-08-25T22:17:05.760Z,26.87
2022-08-25T22:21:11.376Z,26.86
2022-08-25T22:25:17.255Z,26.83
2022-08-25T22:29:25.998Z,26.79
2022-08-25T22:33:36.492Z,26.68
2022-08-25T22:37:47.444Z,26.64
2022-08-25T22:41:55.449Z,26.57
2022-08-25T22:46:05.099Z,26.51
2022-08-25T22:50:08.769Z,26.50
2022-08-25T22:54:16.577Z,26.46
2022-08-25T22:58:18.959Z,26.42
2022-08-25T23:02:20.991Z,26.41
2022-08-25T23:06:26.244Z,26.41
2022-08-25T23:10:34.559Z,26.36
2022-08-25T23:14:38.578Z,26.35
2022-08-25T23:18:52.125Z,26.32
2022-08-25T23:22:54.619Z,26.27
2022-08-25T23:26:56.976Z,26.23
2022-08-25T23:30:59.548Z,26.16
2022-08-25T23:35:01.288Z,26.06
2022-08-25T23:39:04.764Z,26.03
2022-08-25T23:43:12.611Z,26.03
2022-08-25T23:47:14.714Z,26.01
2022-08-25T23:51:28.166Z,25.97
2022-08-25T23:55:33.571Z,25.91
2022-08-25T23:59:35.855Z,25.86
